sensor_id;sensor_type;location;lat;lon;timestamp;P1;durP1;ratioP1;P2;durP2;ratioP2
58689;SDS011;44470;53.206;-6.106;2022-10-19T00:00:48;12.25;;;9.38;;
58689;SDS011;44470;53.206;-6.106;2022-10-19T00:03:14;13.50;;;9.35;;
58689;SDS011;44470;53.206;-6.106;2022-10-19T00:05:40;11.63;;;9.30;;
58689;SDS011;44470;53.206;-6.106;2022-10-19T00:08:06;11.98;;;8.95;;
58689;SDS011;44470;53.206;-6.106;2022-10-19T00:10:31;11.85;;;8.88;;
58689;SDS011;44470;53.206;-6.106;2022-10-19T00:12:57;12.27;;;9.15;;
58689;SDS011;44470;53.206;-6.106;2022-10-19T00:15:23;10.23;;;9.10;;
58689;SDS011;44470;53.206;-6.106;2022-10-19T00:17:48;11.07;;;8.45;;
58689;SDS011;44470;53.206;-6.106;2022-10-19T00:20:14;10.25;;;8.48;;
58689;SDS011;44470;53.206;-6.106;2022-10-19T00:22:39;11.13;;;8.77;;
58689;SDS011;44470;53.206;-6.106;2022-10-19T00:25:05;10.95;;;8.10;;
58689;SDS011;44470;53.206;-6.106;2022-10-19T00:27:31;11.38;;;7.80;;
58689;SDS011;44470;53.206;-6.106;2022-10-19T00:29:57;9.45;;;7.90;;
58689;SDS011;44470;53.206;-6.106;2022-10-19T00:32:22;10.55;;;8.40;;
58689;SDS011;44470;53.206;-6.106;2022-10-19T00:34:48;8.88;;;7.78;;
58689;SDS011;44470;53.206;-6.106;2022-10-19T00:37:13;8.88;;;7.85;;
58689;SDS011;44470;53.206;-6.106;2022-10-19T00:39:39;9.45;;;7.97;;
58689;SDS011;44470;53.206;-6.106;2022-10-19T00:42:04;8.75;;;7.50;;
58689;SDS011;44470;53.206;-6.106;2022-10-19T00:46:59;10.00;;;7.13;;
58689;SDS011;44470;53.206;-6.106;2022-10-19T00:49:28;7.90;;;7.10;;
58689;SDS011;44470;53.206;-6.106;2022-10-19T00:52:01;8.90;;;7.22;;
58689;SDS011;44470;53.206;-6.106;2022-10-19T00:54:32;10.15;;;7.03;;
58689;SDS011;44470;53.206;-6.106;2022-10-19T00:56:58;8.18;;;7.13;;
58689;SDS011;44470;53.206;-6.106;2022-10-19T00:59:25;8.57;;;6.88;;
58689;SDS011;44470;53.206;-6.106;2022-10-19T01:01:52;8.45;;;6.57;;
58689;SDS011;44470;53.206;-6.106;2022-10-19T01:04:19;10.02;;;6.75;;
58689;SDS011;44470;53.206;-6.106;2022-10-19T01:06:46;9.38;;;6.75;;
58689;SDS011;44470;53.206;-6.106;2022-10-19T01:09:12;10.23;;;6.68;;
58689;SDS011;44470;53.206;-6.106;2022-10-19T01:32:12;8.88;;;6.15;;
58689;SDS011;44470;53.206;-6.106;2022-10-19T01:34:46;6.43;;;5.53;;
58689;SDS011;44470;53.206;-6.106;2022-10-19T01:42:32;8.90;;;5.40;;
58689;SDS011;44470;53.206;-6.106;2022-10-19T01:45:21;6.07;;;5.55;;
58689;SDS011;44470;53.206;-6.106;2022-10-19T01:47:54;6.88;;;5.40;;
58689;SDS011;44470;53.206;-6.106;2022-10-19T01:50:37;6.65;;;5.25;;
58689;SDS011;44470;53.206;-6.106;2022-10-19T01:53:08;5.63;;;5.07;;
58689;SDS011;44470;53.206;-6.106;2022-10-19T01:55:38;5.40;;;4.90;;
58689;SDS011;44470;53.206;-6.106;2022-10-19T01:58:08;5.63;;;4.72;;
58689;SDS011;44470;53.206;-6.106;2022-10-19T02:00:38;6.22;;;4.63;;
58689;SDS011;44470;53.206;-6.106;2022-10-19T02:03:07;6.40;;;4.90;;
58689;SDS011;44470;53.206;-6.106;2022-10-19T02:05:34;5.50;;;4.53;;
58689;SDS011;44470;53.206;-6.106;2022-10-19T02:08:02;6.18;;;5.03;;
58689;SDS011;44470;53.206;-6.106;2022-10-19T02:10:32;6.60;;;4.60;;
58689;SDS011;44470;53.206;-6.106;2022-10-19T02:13:02;5.65;;;4.53;;
58689;SDS011;44470;53.206;-6.106;2022-10-19T02:15:30;4.75;;;4.20;;
58689;SDS011;44470;53.206;-6.106;2022-10-19T02:20:26;6.25;;;4.30;;
58689;SDS011;44470;53.206;-6.106;2022-10-19T02:22:52;4.85;;;4.35;;
58689;SDS011;44470;53.206;-6.106;2022-10-19T02:25:18;4.85;;;4.18;;
58689;SDS011;44470;53.206;-6.106;2022-10-19T02:27:44;6.07;;;4.07;;
58689;SDS011;44470;53.206;-6.106;2022-10-19T02:30:10;4.57;;;4.18;;
58689;SDS011;44470;53.206;-6.106;2022-10-19T02:32:38;5.65;;;4.00;;
58689;SDS011;44470;53.206;-6.106;2022-10-19T02:35:04;4.78;;;4.32;;
58689;SDS011;44470;53.206;-6.106;2022-10-19T02:37:30;5.13;;;4.10;;
58689;SDS011;44470;53.206;-6.106;2022-10-19T02:39:56;4.82;;;3.97;;
58689;SDS011;44470;53.206;-6.106;2022-10-19T02:42:27;4.88;;;3.80;;
58689;SDS011;44470;53.206;-6.106;2022-10-19T02:44:59;6.00;;;4.15;;
58689;SDS011;44470;53.206;-6.106;2022-10-19T02:47:33;5.90;;;3.45;;
58689;SDS011;44470;53.206;-6.106;2022-10-19T02:50:06;4.30;;;3.90;;
58689;SDS011;44470;53.206;-6.106;2022-10-19T02:52:35;5.72;;;3.65;;
58689;SDS011;44470;53.206;-6.106;2022-10-19T02:55:01;4.38;;;3.85;;
58689;SDS011;44470;53.206;-6.106;2022-10-19T02:57:27;4.55;;;3.88;;
58689;SDS011;44470;53.206;-6.106;2022-10-19T02:59:53;5.10;;;3.70;;
58689;SDS011;44470;53.206;-6.106;2022-10-19T03:02:19;5.20;;;3.60;;
58689;SDS011;44470;53.206;-6.106;2022-10-19T03:04:45;4.47;;;3.70;;
58689;SDS011;44470;53.206;-6.106;2022-10-19T03:07:12;3.95;;;3.58;;
58689;SDS011;44470;53.206;-6.106;2022-10-19T03:09:39;3.72;;;3.17;;
58689;SDS011;44470;53.206;-6.106;2022-10-19T03:12:05;3.92;;;3.35;;
58689;SDS011;44470;53.206;-6.106;2022-10-19T03:14:31;3.83;;;3.50;;
58689;SDS011;44470;53.206;-6.106;2022-10-19T03:16:56;3.67;;;3.30;;
58689;SDS011;44470;53.206;-6.106;2022-10-19T03:19:22;5.05;;;3.35;;
58689;SDS011;44470;53.206;-6.106;2022-10-19T03:21:47;5.05;;;3.50;;
58689;SDS011;44470;53.206;-6.106;2022-10-19T03:24:13;4.60;;;3.80;;
58689;SDS011;44470;53.206;-6.106;2022-10-19T03:26:38;3.65;;;3.35;;
58689;SDS011;44470;53.206;-6.106;2022-10-19T03:29:04;4.57;;;3.13;;
58689;SDS011;44470;53.206;-6.106;2022-10-19T03:31:29;4.07;;;2.97;;
58689;SDS011;44470;53.206;-6.106;2022-10-19T03:33:55;3.70;;;3.40;;
58689;SDS011;44470;53.206;-6.106;2022-10-19T03:36:24;3.25;;;2.95;;
58689;SDS011;44470;53.206;-6.106;2022-10-19T03:38:52;3.70;;;2.90;;
58689;SDS011;44470;53.206;-6.106;2022-10-19T03:41:19;3.55;;;3.25;;
58689;SDS011;44470;53.206;-6.106;2022-10-19T03:43:46;3.22;;;2.92;;
58689;SDS011;44470;53.206;-6.106;2022-10-19T03:46:11;3.00;;;2.72;;
58689;SDS011;44470;53.206;-6.106;2022-10-19T03:48:38;3.38;;;2.95;;
58689;SDS011;44470;53.206;-6.106;2022-10-19T03:51:04;3.05;;;2.75;;
58689;SDS011;44470;53.206;-6.106;2022-10-19T03:53:32;3.97;;;2.88;;
58689;SDS011;44470;53.206;-6.106;2022-10-19T03:58:33;3.08;;;2.72;;
58689;SDS011;44470;53.206;-6.106;2022-10-19T04:01:00;3.33;;;3.03;;
58689;SDS011;44470;53.206;-6.106;2022-10-19T04:03:26;3.95;;;2.65;;
58689;SDS011;44470;53.206;-6.106;2022-10-19T04:05:51;5.10;;;3.03;;
58689;SDS011;44470;53.206;-6.106;2022-10-19T04:08:17;3.90;;;2.80;;
58689;SDS011;44470;53.206;-6.106;2022-10-19T04:10:43;3.08;;;2.70;;
58689;SDS011;44470;53.206;-6.106;2022-10-19T04:13:09;4.63;;;2.88;;
58689;SDS011;44470;53.206;-6.106;2022-10-19T04:15:35;4.07;;;2.50;;
58689;SDS011;44470;53.206;-6.106;2022-10-19T04:18:00;5.20;;;3.20;;
58689;SDS011;44470;53.206;-6.106;2022-10-19T04:20:26;4.90;;;2.60;;
58689;SDS011;44470;53.206;-6.106;2022-10-19T04:22:51;2.75;;;2.50;;
58689;SDS011;44470;53.206;-6.106;2022-10-19T04:25:17;3.47;;;2.85;;
58689;SDS011;44470;53.206;-6.106;2022-10-19T04:27:43;4.05;;;2.60;;
58689;SDS011;44470;53.206;-6.106;2022-10-19T04:30:09;4.25;;;2.40;;
58689;SDS011;44470;53.206;-6.106;2022-10-19T04:32:35;3.30;;;2.35;;
58689;SDS011;44470;53.206;-6.106;2022-10-19T04:35:00;3.17;;;2.50;;
58689;SDS011;44470;53.206;-6.106;2022-10-19T04:37:26;3.55;;;2.55;;
58689;SDS011;44470;53.206;-6.106;2022-10-19T04:39:51;2.70;;;2.50;;
58689;SDS011;44470;53.206;-6.106;2022-10-19T04:42:17;4.88;;;2.70;;
58689;SDS011;44470;53.206;-6.106;2022-10-19T04:44:42;3.17;;;2.42;;
58689;SDS011;44470;53.206;-6.106;2022-10-19T04:47:08;5.85;;;2.55;;
58689;SDS011;44470;53.206;-6.106;2022-10-19T04:49:33;3.80;;;2.40;;
58689;SDS011;44470;53.206;-6.106;2022-10-19T04:51:59;2.80;;;2.22;;
58689;SDS011;44470;53.206;-6.106;2022-10-19T04:54:24;2.67;;;2.33;;
58689;SDS011;44470;53.206;-6.106;2022-10-19T04:56:50;4.35;;;2.42;;
58689;SDS011;44470;53.206;-6.106;2022-10-19T04:59:17;3.22;;;2.50;;
58689;SDS011;44470;53.206;-6.106;2022-10-19T05:01:43;4.30;;;2.60;;
58689;SDS011;44470;53.206;-6.106;2022-10-19T05:04:09;2.90;;;2.40;;
58689;SDS011;44470;53.206;-6.106;2022-10-19T05:06:35;4.20;;;2.55;;
58689;SDS011;44470;53.206;-6.106;2022-10-19T05:09:00;3.95;;;2.03;;
58689;SDS011;44470;53.206;-6.106;2022-10-19T05:11:26;4.65;;;2.78;;
58689;SDS011;44470;53.206;-6.106;2022-10-19T05:13:51;2.50;;;2.30;;
58689;SDS011;44470;53.206;-6.106;2022-10-19T05:16:18;2.58;;;2.00;;
58689;SDS011;44470;53.206;-6.106;2022-10-19T05:18:48;4.63;;;2.20;;
58689;SDS011;44470;53.206;-6.106;2022-10-19T05:21:15;3.35;;;2.30;;
58689;SDS011;44470;53.206;-6.106;2022-10-19T05:23:41;4.60;;;2.72;;
58689;SDS011;44470;53.206;-6.106;2022-10-19T05:26:08;4.40;;;2.30;;
58689;SDS011;44470;53.206;-6.106;2022-10-19T05:28:35;2.97;;;2.13;;
58689;SDS011;44470;53.206;-6.106;2022-10-19T05:31:11;3.30;;;2.20;;
58689;SDS011;44470;53.206;-6.106;2022-10-19T05:33:39;3.88;;;2.30;;
58689;SDS011;44470;53.206;-6.106;2022-10-19T05:36:15;2.75;;;2.03;;
58689;SDS011;44470;53.206;-6.106;2022-10-19T05:38:52;2.75;;;2.15;;
58689;SDS011;44470;53.206;-6.106;2022-10-19T05:41:20;4.28;;;2.30;;
58689;SDS011;44470;53.206;-6.106;2022-10-19T05:43:46;2.38;;;2.10;;
58689;SDS011;44470;53.206;-6.106;2022-10-19T05:46:20;2.90;;;2.55;;
58689;SDS011;44470;53.206;-6.106;2022-10-19T05:48:46;3.58;;;2.35;;
58689;SDS011;44470;53.206;-6.106;2022-10-19T05:51:13;4.03;;;2.25;;
58689;SDS011;44470;53.206;-6.106;2022-10-19T05:56:08;4.22;;;2.40;;
58689;SDS011;44470;53.206;-6.106;2022-10-19T06:01:03;3.85;;;2.22;;
58689;SDS011;44470;53.206;-6.106;2022-10-19T06:03:29;3.28;;;2.00;;
58689;SDS011;44470;53.206;-6.106;2022-10-19T06:05:54;4.30;;;2.22;;
58689;SDS011;44470;53.206;-6.106;2022-10-19T06:08:21;5.20;;;2.45;;
58689;SDS011;44470;53.206;-6.106;2022-10-19T06:10:48;3.20;;;2.33;;
58689;SDS011;44470;53.206;-6.106;2022-10-19T06:13:14;3.55;;;2.03;;
58689;SDS011;44470;53.206;-6.106;2022-10-19T06:15:41;5.20;;;2.35;;
58689;SDS011;44470;53.206;-6.106;2022-10-19T06:18:07;4.50;;;2.22;;
58689;SDS011;44470;53.206;-6.106;2022-10-19T06:20:37;6.22;;;2.30;;
58689;SDS011;44470;53.206;-6.106;2022-10-19T06:23:05;3.22;;;2.30;;
58689;SDS011;44470;53.206;-6.106;2022-10-19T06:25:32;2.15;;;1.95;;
58689;SDS011;44470;53.206;-6.106;2022-10-19T06:27:58;3.78;;;2.17;;
58689;SDS011;44470;53.206;-6.106;2022-10-19T06:30:24;3.22;;;2.00;;
58689;SDS011;44470;53.206;-6.106;2022-10-19T06:32:50;3.90;;;2.10;;
58689;SDS011;44470;53.206;-6.106;2022-10-19T06:35:16;2.88;;;1.90;;
58689;SDS011;44470;53.206;-6.106;2022-10-19T06:37:42;3.03;;;2.10;;
58689;SDS011;44470;53.206;-6.106;2022-10-19T06:40:08;2.10;;;1.90;;
58689;SDS011;44470;53.206;-6.106;2022-10-19T06:42:34;4.18;;;2.22;;
58689;SDS011;44470;53.206;-6.106;2022-10-19T06:45:07;4.03;;;2.13;;
58689;SDS011;44470;53.206;-6.106;2022-10-19T06:47:34;3.85;;;2.15;;
58689;SDS011;44470;53.206;-6.106;2022-10-19T06:50:00;3.67;;;2.20;;
58689;SDS011;44470;53.206;-6.106;2022-10-19T06:52:27;4.65;;;2.15;;
58689;SDS011;44470;53.206;-6.106;2022-10-19T06:54:52;3.83;;;1.90;;
58689;SDS011;44470;53.206;-6.106;2022-10-19T06:57:18;2.22;;;1.95;;
58689;SDS011;44470;53.206;-6.106;2022-10-19T06:59:43;3.33;;;2.00;;
58689;SDS011;44470;53.206;-6.106;2022-10-19T07:02:09;3.22;;;2.30;;
58689;SDS011;44470;53.206;-6.106;2022-10-19T07:04:36;2.45;;;2.25;;
58689;SDS011;44470;53.206;-6.106;2022-10-19T07:07:01;2.40;;;1.98;;
58689;SDS011;44470;53.206;-6.106;2022-10-19T07:09:27;3.75;;;2.03;;
58689;SDS011;44470;53.206;-6.106;2022-10-19T07:11:52;4.90;;;2.30;;
58689;SDS011;44470;53.206;-6.106;2022-10-19T07:14:18;3.47;;;2.20;;
58689;SDS011;44470;53.206;-6.106;2022-10-19T07:16:43;5.03;;;2.20;;
58689;SDS011;44470;53.206;-6.106;2022-10-19T07:19:09;3.72;;;2.17;;
58689;SDS011;44470;53.206;-6.106;2022-10-19T07:21:35;3.10;;;2.17;;
58689;SDS011;44470;53.206;-6.106;2022-10-19T07:26:31;4.10;;;1.83;;
58689;SDS011;44470;53.206;-6.106;2022-10-19T07:28:58;3.60;;;2.50;;
58689;SDS011;44470;53.206;-6.106;2022-10-19T07:31:24;2.53;;;1.85;;
58689;SDS011;44470;53.206;-6.106;2022-10-19T07:33:52;3.33;;;1.80;;
58689;SDS011;44470;53.206;-6.106;2022-10-19T07:36:18;4.80;;;1.77;;
58689;SDS011;44470;53.206;-6.106;2022-10-19T07:38:43;2.40;;;1.80;;
58689;SDS011;44470;53.206;-6.106;2022-10-19T07:41:09;2.97;;;1.67;;
58689;SDS011;44470;53.206;-6.106;2022-10-19T07:43:37;1.98;;;1.75;;
58689;SDS011;44470;53.206;-6.106;2022-10-19T07:46:04;3.78;;;2.00;;
58689;SDS011;44470;53.206;-6.106;2022-10-19T07:48:32;3.70;;;1.88;;
58689;SDS011;44470;53.206;-6.106;2022-10-19T07:50:59;6.10;;;2.08;;
58689;SDS011;44470;53.206;-6.106;2022-10-19T07:53:26;5.10;;;1.90;;
58689;SDS011;44470;53.206;-6.106;2022-10-19T07:55:51;2.33;;;1.70;;
58689;SDS011;44470;53.206;-6.106;2022-10-19T07:58:17;3.97;;;2.08;;
58689;SDS011;44470;53.206;-6.106;2022-10-19T08:00:42;3.92;;;1.77;;
58689;SDS011;44470;53.206;-6.106;2022-10-19T08:03:08;11.60;;;2.92;;
58689;SDS011;44470;53.206;-6.106;2022-10-19T08:05:34;5.07;;;2.08;;
58689;SDS011;44470;53.206;-6.106;2022-10-19T08:07:59;6.35;;;2.15;;
58689;SDS011;44470;53.206;-6.106;2022-10-19T08:10:25;4.80;;;2.05;;
58689;SDS011;44470;53.206;-6.106;2022-10-19T08:12:51;5.03;;;2.42;;
58689;SDS011;44470;53.206;-6.106;2022-10-19T08:15:16;3.50;;;2.08;;
58689;SDS011;44470;53.206;-6.106;2022-10-19T08:17:42;3.10;;;1.90;;
58689;SDS011;44470;53.206;-6.106;2022-10-19T08:20:07;2.10;;;1.90;;
58689;SDS011;44470;53.206;-6.106;2022-10-19T08:22:33;4.38;;;2.28;;
58689;SDS011;44470;53.206;-6.106;2022-10-19T08:24:58;6.43;;;2.08;;
58689;SDS011;44470;53.206;-6.106;2022-10-19T08:27:24;5.60;;;2.60;;
58689;SDS011;44470;53.206;-6.106;2022-10-19T08:29:50;5.72;;;3.08;;
58689;SDS011;44470;53.206;-6.106;2022-10-19T08:32:16;13.75;;;6.95;;
58689;SDS011;44470;53.206;-6.106;2022-10-19T08:34:43;13.07;;;6.57;;
58689;SDS011;44470;53.206;-6.106;2022-10-19T08:37:08;13.05;;;6.50;;
58689;SDS011;44470;53.206;-6.106;2022-10-19T08:39:34;9.10;;;4.15;;
58689;SDS011;44470;53.206;-6.106;2022-10-19T08:42:04;13.25;;;6.53;;
58689;SDS011;44470;53.206;-6.106;2022-10-19T08:44:47;16.05;;;7.78;;
58689;SDS011;44470;53.206;-6.106;2022-10-19T08:50:13;19.60;;;8.10;;
58689;SDS011;44470;53.206;-6.106;2022-10-19T08:52:42;13.98;;;7.70;;
58689;SDS011;44470;53.206;-6.106;2022-10-19T08:55:14;20.40;;;9.60;;
58689;SDS011;44470;53.206;-6.106;2022-10-19T09:03:53;19.48;;;10.00;;
58689;SDS011;44470;53.206;-6.106;2022-10-19T09:06:29;19.95;;;9.88;;
58689;SDS011;44470;53.206;-6.106;2022-10-19T09:08:59;23.05;;;9.20;;
58689;SDS011;44470;53.206;-6.106;2022-10-19T09:11:27;15.50;;;7.13;;
58689;SDS011;44470;53.206;-6.106;2022-10-19T09:14:02;18.45;;;8.27;;
58689;SDS011;44470;53.206;-6.106;2022-10-19T09:16:36;17.35;;;8.63;;
58689;SDS011;44470;53.206;-6.106;2022-10-19T09:19:02;18.48;;;8.60;;
58689;SDS011;44470;53.206;-6.106;2022-10-19T09:21:53;19.50;;;8.63;;
58689;SDS011;44470;53.206;-6.106;2022-10-19T09:24:28;17.65;;;8.25;;
58689;SDS011;44470;53.206;-6.106;2022-10-19T09:27:01;16.83;;;7.68;;
58689;SDS011;44470;53.206;-6.106;2022-10-19T09:29:38;17.83;;;8.23;;
58689;SDS011;44470;53.206;-6.106;2022-10-19T09:32:17;23.20;;;7.95;;
58689;SDS011;44470;53.206;-6.106;2022-10-19T09:34:53;29.25;;;9.32;;
58689;SDS011;44470;53.206;-6.106;2022-10-19T09:37:21;21.08;;;7.95;;
58689;SDS011;44470;53.206;-6.106;2022-10-19T09:39:47;26.60;;;8.60;;
58689;SDS011;44470;53.206;-6.106;2022-10-19T09:42:29;19.92;;;8.27;;
58689;SDS011;44470;53.206;-6.106;2022-10-19T09:45:05;21.92;;;8.52;;
58689;SDS011;44470;53.206;-6.106;2022-10-19T09:47:41;19.08;;;7.38;;
58689;SDS011;44470;53.206;-6.106;2022-10-19T09:52:47;19.77;;;8.07;;
58689;SDS011;44470;53.206;-6.106;2022-10-19T10:00:38;19.60;;;7.43;;
58689;SDS011;44470;53.206;-6.106;2022-10-19T10:03:07;18.00;;;7.72;;
58689;SDS011;44470;53.206;-6.106;2022-10-19T10:05:45;16.83;;;7.13;;
58689;SDS011;44470;53.206;-6.106;2022-10-19T10:08:14;13.75;;;6.72;;
58689;SDS011;44470;53.206;-6.106;2022-10-19T10:10:46;20.95;;;6.90;;
58689;SDS011;44470;53.206;-6.106;2022-10-19T10:13:20;12.73;;;6.75;;
58689;SDS011;44470;53.206;-6.106;2022-10-19T10:15:50;13.25;;;6.82;;
58689;SDS011;44470;53.206;-6.106;2022-10-19T10:18:20;15.25;;;7.25;;
58689;SDS011;44470;53.206;-6.106;2022-10-19T10:20:56;12.18;;;6.78;;
58689;SDS011;44470;53.206;-6.106;2022-10-19T10:23:25;15.32;;;6.90;;
58689;SDS011;44470;53.206;-6.106;2022-10-19T10:25:56;17.67;;;6.90;;
58689;SDS011;44470;53.206;-6.106;2022-10-19T10:28:25;14.43;;;6.80;;
58689;SDS011;44470;53.206;-6.106;2022-10-19T10:31:03;15.35;;;6.30;;
58689;SDS011;44470;53.206;-6.106;2022-10-19T10:33:31;13.95;;;6.40;;
58689;SDS011;44470;53.206;-6.106;2022-10-19T10:36:01;15.05;;;6.70;;
58689;SDS011;44470;53.206;-6.106;2022-10-19T10:38:31;17.48;;;6.93;;
58689;SDS011;44470;53.206;-6.106;2022-10-19T10:41:04;16.35;;;6.93;;
58689;SDS011;44470;53.206;-6.106;2022-10-19T10:43:37;14.07;;;6.20;;
58689;SDS011;44470;53.206;-6.106;2022-10-19T10:46:14;13.73;;;6.38;;
58689;SDS011;44470;53.206;-6.106;2022-10-19T10:48:45;14.65;;;5.75;;
58689;SDS011;44470;53.206;-6.106;2022-10-19T10:51:38;14.45;;;6.03;;
58689;SDS011;44470;53.206;-6.106;2022-10-19T10:54:18;15.20;;;5.78;;
58689;SDS011;44470;53.206;-6.106;2022-10-19T10:59:54;14.43;;;6.07;;
58689;SDS011;44470;53.206;-6.106;2022-10-19T11:02:31;13.40;;;5.60;;
58689;SDS011;44470;53.206;-6.106;2022-10-19T11:10:40;20.38;;;6.13;;
58689;SDS011;44470;53.206;-6.106;2022-10-19T11:13:13;18.98;;;5.40;;
58689;SDS011;44470;53.206;-6.106;2022-10-19T11:15:47;14.55;;;5.32;;
58689;SDS011;44470;53.206;-6.106;2022-10-19T11:18:19;12.10;;;5.60;;
58689;SDS011;44470;53.206;-6.106;2022-10-19T11:20:54;13.23;;;5.13;;
58689;SDS011;44470;53.206;-6.106;2022-10-19T11:23:36;18.63;;;5.82;;
58689;SDS011;44470;53.206;-6.106;2022-10-19T11:31:50;9.38;;;5.05;;
58689;SDS011;44470;53.206;-6.106;2022-10-19T11:42:56;9.98;;;4.63;;
58689;SDS011;44470;53.206;-6.106;2022-10-19T11:45:46;13.95;;;4.57;;
58689;SDS011;44470;53.206;-6.106;2022-10-19T12:05:00;13.80;;;4.65;;
58689;SDS011;44470;53.206;-6.106;2022-10-19T12:07:54;12.90;;;3.85;;
58689;SDS011;44470;53.206;-6.106;2022-10-19T12:13:41;9.57;;;4.25;;
58689;SDS011;44470;53.206;-6.106;2022-10-19T12:16:12;10.32;;;4.07;;
58689;SDS011;44470;53.206;-6.106;2022-10-19T12:18:45;10.07;;;3.80;;
58689;SDS011;44470;53.206;-6.106;2022-10-19T12:21:27;9.95;;;3.92;;
58689;SDS011;44470;53.206;-6.106;2022-10-19T12:23:58;14.30;;;3.92;;
58689;SDS011;44470;53.206;-6.106;2022-10-19T12:26:26;10.52;;;4.13;;
58689;SDS011;44470;53.206;-6.106;2022-10-19T12:28:57;10.20;;;3.67;;
58689;SDS011;44470;53.206;-6.106;2022-10-19T12:31:25;11.35;;;4.10;;
58689;SDS011;44470;53.206;-6.106;2022-10-19T12:39:06;11.13;;;4.15;;
58689;SDS011;44470;53.206;-6.106;2022-10-19T12:47:33;10.60;;;3.63;;
58689;SDS011;44470;53.206;-6.106;2022-10-19T12:49:59;8.65;;;4.00;;
58689;SDS011;44470;53.206;-6.106;2022-10-19T12:55:10;10.65;;;3.65;;
58689;SDS011;44470;53.206;-6.106;2022-10-19T12:57:38;13.05;;;3.80;;
58689;SDS011;44470;53.206;-6.106;2022-10-19T13:00:20;13.75;;;4.13;;
58689;SDS011;44470;53.206;-6.106;2022-10-19T13:05:58;12.45;;;4.03;;
58689;SDS011;44470;53.206;-6.106;2022-10-19T13:08:29;23.63;;;4.20;;
58689;SDS011;44470;53.206;-6.106;2022-10-19T13:13:52;14.95;;;4.22;;
58689;SDS011;44470;53.206;-6.106;2022-10-19T13:19:23;8.48;;;3.33;;
58689;SDS011;44470;53.206;-6.106;2022-10-19T13:24:50;12.32;;;3.22;;
58689;SDS011;44470;53.206;-6.106;2022-10-19T13:27:42;8.25;;;3.03;;
58689;SDS011;44470;53.206;-6.106;2022-10-19T13:32:59;13.13;;;3.53;;
58689;SDS011;44470;53.206;-6.106;2022-10-19T13:36:06;12.20;;;3.17;;
58689;SDS011;44470;53.206;-6.106;2022-10-19T13:52:11;10.65;;;3.45;;
58689;SDS011;44470;53.206;-6.106;2022-10-19T14:00:22;7.30;;;3.00;;
58689;SDS011;44470;53.206;-6.106;2022-10-19T14:02:52;12.93;;;3.08;;
58689;SDS011;44470;53.206;-6.106;2022-10-19T14:06:12;11.05;;;3.05;;
58689;SDS011;44470;53.206;-6.106;2022-10-19T14:11:16;10.40;;;2.83;;
58689;SDS011;44470;53.206;-6.106;2022-10-19T14:13:45;10.70;;;2.60;;
58689;SDS011;44470;53.206;-6.106;2022-10-19T14:16:30;10.57;;;2.97;;
58689;SDS011;44470;53.206;-6.106;2022-10-19T14:18:56;8.05;;;2.60;;
58689;SDS011;44470;53.206;-6.106;2022-10-19T14:21:31;7.38;;;3.08;;
58689;SDS011;44470;53.206;-6.106;2022-10-19T14:24:00;7.10;;;2.60;;
58689;SDS011;44470;53.206;-6.106;2022-10-19T14:26:27;9.32;;;2.70;;
58689;SDS011;44470;53.206;-6.106;2022-10-19T14:28:55;7.57;;;2.83;;
58689;SDS011;44470;53.206;-6.106;2022-10-19T14:31:24;6.72;;;2.50;;
58689;SDS011;44470;53.206;-6.106;2022-10-19T14:34:00;6.50;;;2.20;;
58689;SDS011;44470;53.206;-6.106;2022-10-19T14:36:38;7.80;;;2.75;;
58689;SDS011;44470;53.206;-6.106;2022-10-19T14:39:20;4.93;;;2.50;;
58689;SDS011;44470;53.206;-6.106;2022-10-19T14:41:51;11.60;;;2.60;;
58689;SDS011;44470;53.206;-6.106;2022-10-19T14:47:26;6.05;;;2.15;;
58689;SDS011;44470;53.206;-6.106;2022-10-19T14:49:51;7.07;;;2.38;;
58689;SDS011;44470;53.206;-6.106;2022-10-19T14:52:28;7.72;;;2.60;;
58689;SDS011;44470;53.206;-6.106;2022-10-19T14:55:00;5.05;;;2.20;;
58689;SDS011;44470;53.206;-6.106;2022-10-19T14:57:34;6.93;;;2.20;;
58689;SDS011;44470;53.206;-6.106;2022-10-19T15:00:04;10.45;;;2.47;;
58689;SDS011;44470;53.206;-6.106;2022-10-19T15:02:37;6.90;;;2.40;;
58689;SDS011;44470;53.206;-6.106;2022-10-19T15:05:16;5.97;;;2.60;;
58689;SDS011;44470;53.206;-6.106;2022-10-19T15:07:44;10.25;;;2.45;;
58689;SDS011;44470;53.206;-6.106;2022-10-19T15:13:25;6.70;;;2.10;;
58689;SDS011;44470;53.206;-6.106;2022-10-19T15:15:55;6.60;;;2.40;;
58689;SDS011;44470;53.206;-6.106;2022-10-19T15:18:24;7.40;;;2.50;;
58689;SDS011;44470;53.206;-6.106;2022-10-19T15:21:09;6.45;;;2.45;;
58689;SDS011;44470;53.206;-6.106;2022-10-19T15:23:44;8.15;;;2.63;;
58689;SDS011;44470;53.206;-6.106;2022-10-19T15:26:26;6.20;;;2.20;;
58689;SDS011;44470;53.206;-6.106;2022-10-19T15:28:54;5.10;;;2.50;;
58689;SDS011;44470;53.206;-6.106;2022-10-19T15:31:31;5.53;;;2.00;;
58689;SDS011;44470;53.206;-6.106;2022-10-19T15:33:58;3.97;;;2.08;;
58689;SDS011;44470;53.206;-6.106;2022-10-19T15:36:26;7.63;;;2.38;;
58689;SDS011;44470;53.206;-6.106;2022-10-19T15:41:55;8.13;;;2.40;;
58689;SDS011;44470;53.206;-6.106;2022-10-19T15:44:28;6.82;;;2.42;;
58689;SDS011;44470;53.206;-6.106;2022-10-19T15:52:17;4.47;;;2.40;;
58689;SDS011;44470;53.206;-6.106;2022-10-19T15:59:48;5.57;;;2.20;;
58689;SDS011;44470;53.206;-6.106;2022-10-19T16:02:14;5.75;;;2.22;;
58689;SDS011;44470;53.206;-6.106;2022-10-19T16:04:39;6.45;;;2.10;;
58689;SDS011;44470;53.206;-6.106;2022-10-19T16:07:05;5.10;;;2.10;;
58689;SDS011;44470;53.206;-6.106;2022-10-19T16:09:31;6.80;;;2.40;;
58689;SDS011;44470;53.206;-6.106;2022-10-19T16:11:57;5.18;;;1.95;;
58689;SDS011;44470;53.206;-6.106;2022-10-19T16:14:23;4.18;;;1.75;;
58689;SDS011;44470;53.206;-6.106;2022-10-19T16:16:50;6.50;;;2.20;;
58689;SDS011;44470;53.206;-6.106;2022-10-19T16:19:16;6.97;;;2.38;;
58689;SDS011;44470;53.206;-6.106;2022-10-19T16:21:41;4.40;;;2.40;;
58689;SDS011;44470;53.206;-6.106;2022-10-19T16:24:07;5.85;;;1.92;;
58689;SDS011;44470;53.206;-6.106;2022-10-19T16:26:32;4.60;;;2.03;;
58689;SDS011;44470;53.206;-6.106;2022-10-19T16:28:59;5.70;;;2.17;;
58689;SDS011;44470;53.206;-6.106;2022-10-19T16:31:25;7.15;;;2.13;;
58689;SDS011;44470;53.206;-6.106;2022-10-19T16:33:51;7.68;;;2.08;;
58689;SDS011;44470;53.206;-6.106;2022-10-19T16:36:16;10.90;;;2.20;;
58689;SDS011;44470;53.206;-6.106;2022-10-19T16:38:44;12.93;;;2.42;;
58689;SDS011;44470;53.206;-6.106;2022-10-19T16:41:11;18.65;;;2.90;;
58689;SDS011;44470;53.206;-6.106;2022-10-19T16:43:36;14.02;;;2.63;;
58689;SDS011;44470;53.206;-6.106;2022-10-19T16:46:02;17.95;;;2.78;;
58689;SDS011;44470;53.206;-6.106;2022-10-19T16:48:29;19.30;;;2.80;;
58689;SDS011;44470;53.206;-6.106;2022-10-19T16:53:29;21.02;;;3.08;;
58689;SDS011;44470;53.206;-6.106;2022-10-19T16:55:56;13.23;;;2.80;;
58689;SDS011;44470;53.206;-6.106;2022-10-19T16:58:29;9.98;;;2.30;;
58689;SDS011;44470;53.206;-6.106;2022-10-19T17:00:54;9.48;;;2.88;;
58689;SDS011;44470;53.206;-6.106;2022-10-19T17:03:21;10.05;;;2.50;;
58689;SDS011;44470;53.206;-6.106;2022-10-19T17:05:46;10.63;;;2.40;;
58689;SDS011;44470;53.206;-6.106;2022-10-19T17:08:12;12.23;;;2.38;;
58689;SDS011;44470;53.206;-6.106;2022-10-19T17:10:37;10.20;;;2.40;;
58689;SDS011;44470;53.206;-6.106;2022-10-19T17:13:03;10.43;;;2.97;;
58689;SDS011;44470;53.206;-6.106;2022-10-19T17:15:28;6.72;;;2.20;;
58689;SDS011;44470;53.206;-6.106;2022-10-19T17:17:54;9.32;;;2.13;;
58689;SDS011;44470;53.206;-6.106;2022-10-19T17:20:22;13.57;;;2.05;;
58689;SDS011;44470;53.206;-6.106;2022-10-19T17:22:50;6.35;;;2.30;;
58689;SDS011;44470;53.206;-6.106;2022-10-19T17:25:16;9.70;;;2.42;;
58689;SDS011;44470;53.206;-6.106;2022-10-19T17:27:41;6.72;;;2.03;;
58689;SDS011;44470;53.206;-6.106;2022-10-19T17:30:07;10.35;;;2.30;;
58689;SDS011;44470;53.206;-6.106;2022-10-19T17:32:32;8.60;;;2.60;;
58689;SDS011;44470;53.206;-6.106;2022-10-19T17:34:58;7.45;;;2.13;;